sensor_id;sensor_type;location;lat;lon;timestamp;P1;durP1;ratioP1;P2;durP2;ratioP2
19084;SDS011;9675;51.538;6.728;2023-04-19T00:00:37;8.27;;;3.60;;
19084;SDS011;9675;51.538;6.728;2023-04-19T00:03:04;8.30;;;4.63;;
19084;SDS011;9675;51.538;6.728;2023-04-19T00:05:32;11.00;;;6.37;;
19084;SDS011;9675;51.538;6.728;2023-04-19T00:07:59;8.60;;;3.70;;
19084;SDS011;9675;51.538;6.728;2023-04-19T00:10:26;11.13;;;5.93;;
19084;SDS011;9675;51.538;6.728;2023-04-19T00:12:53;7.60;;;4.30;;
19084;SDS011;9675;51.538;6.728;2023-04-19T00:15:22;8.77;;;4.50;;
19084;SDS011;9675;51.538;6.728;2023-04-19T00:17:49;9.77;;;4.40;;
19084;SDS011;9675;51.538;6.728;2023-04-19T00:20:16;10.17;;;4.53;;
19084;SDS011;9675;51.538;6.728;2023-04-19T00:22:44;10.33;;;5.07;;
19084;SDS011;9675;51.538;6.728;2023-04-19T00:25:11;7.73;;;4.03;;
19084;SDS011;9675;51.538;6.728;2023-04-19T00:27:38;10.53;;;5.37;;
19084;SDS011;9675;51.538;6.728;2023-04-19T00:30:05;9.93;;;4.83;;
19084;SDS011;9675;51.538;6.728;2023-04-19T00:32:35;9.63;;;4.87;;
19084;SDS011;9675;51.538;6.728;2023-04-19T00:35:02;9.07;;;4.40;;
19084;SDS011;9675;51.538;6.728;2023-04-19T00:37:29;11.30;;;5.23;;
19084;SDS011;9675;51.538;6.728;2023-04-19T00:39:56;7.77;;;4.53;;
19084;SDS011;9675;51.538;6.728;2023-04-19T00:42:23;5.90;;;4.03;;
19084;SDS011;9675;51.538;6.728;2023-04-19T00:44:50;9.40;;;3.97;;
19084;SDS011;9675;51.538;6.728;2023-04-19T00:47:17;9.20;;;4.90;;
19084;SDS011;9675;51.538;6.728;2023-04-19T00:49:45;10.90;;;4.13;;
19084;SDS011;9675;51.538;6.728;2023-04-19T00:52:13;8.67;;;4.10;;
19084;SDS011;9675;51.538;6.728;2023-04-19T00:54:40;6.53;;;3.77;;
19084;SDS011;9675;51.538;6.728;2023-04-19T00:57:09;11.00;;;5.00;;
19084;SDS011;9675;51.538;6.728;2023-04-19T00:59:36;12.87;;;4.63;;
19084;SDS011;9675;51.538;6.728;2023-04-19T01:02:04;9.77;;;4.60;;
19084;SDS011;9675;51.538;6.728;2023-04-19T01:04:31;5.90;;;3.57;;
19084;SDS011;9675;51.538;6.728;2023-04-19T01:07:00;8.80;;;4.40;;
19084;SDS011;9675;51.538;6.728;2023-04-19T01:09:27;7.17;;;4.23;;
19084;SDS011;9675;51.538;6.728;2023-04-19T01:11:55;6.57;;;3.60;;
19084;SDS011;9675;51.538;6.728;2023-04-19T01:14:21;11.43;;;4.40;;
19084;SDS011;9675;51.538;6.728;2023-04-19T01:16:48;7.50;;;3.40;;
19084;SDS011;9675;51.538;6.728;2023-04-19T01:19:17;6.70;;;3.27;;
19084;SDS011;9675;51.538;6.728;2023-04-19T01:21:44;9.10;;;4.13;;
19084;SDS011;9675;51.538;6.728;2023-04-19T01:24:12;9.20;;;5.17;;
19084;SDS011;9675;51.538;6.728;2023-04-19T01:26:39;8.60;;;4.77;;
19084;SDS011;9675;51.538;6.728;2023-04-19T01:29:06;7.43;;;3.53;;
19084;SDS011;9675;51.538;6.728;2023-04-19T01:31:33;6.57;;;3.03;;
19084;SDS011;9675;51.538;6.728;2023-04-19T01:34:00;10.03;;;4.67;;
19084;SDS011;9675;51.538;6.728;2023-04-19T01:36:27;6.60;;;3.23;;
19084;SDS011;9675;51.538;6.728;2023-04-19T01:38:55;8.37;;;3.40;;
19084;SDS011;9675;51.538;6.728;2023-04-19T01:41:23;8.20;;;3.93;;
19084;SDS011;9675;51.538;6.728;2023-04-19T01:43:51;8.87;;;4.40;;
19084;SDS011;9675;51.538;6.728;2023-04-19T01:46:18;9.83;;;4.57;;
19084;SDS011;9675;51.538;6.728;2023-04-19T01:48:45;7.53;;;3.47;;
19084;SDS011;9675;51.538;6.728;2023-04-19T01:51:12;10.53;;;4.73;;
19084;SDS011;9675;51.538;6.728;2023-04-19T01:53:41;9.03;;;4.40;;
19084;SDS011;9675;51.538;6.728;2023-04-19T01:56:08;10.53;;;5.07;;
19084;SDS011;9675;51.538;6.728;2023-04-19T01:58:36;11.77;;;4.47;;
19084;SDS011;9675;51.538;6.728;2023-04-19T02:01:03;9.63;;;4.77;;
19084;SDS011;9675;51.538;6.728;2023-04-19T02:03:30;8.80;;;4.17;;
19084;SDS011;9675;51.538;6.728;2023-04-19T02:05:57;5.50;;;3.60;;
19084;SDS011;9675;51.538;6.728;2023-04-19T02:08:25;9.77;;;4.27;;
19084;SDS011;9675;51.538;6.728;2023-04-19T02:10:52;6.37;;;3.63;;
19084;SDS011;9675;51.538;6.728;2023-04-19T02:13:19;6.07;;;3.40;;
19084;SDS011;9675;51.538;6.728;2023-04-19T02:15:48;7.67;;;3.83;;
19084;SDS011;9675;51.538;6.728;2023-04-19T02:18:15;8.07;;;3.57;;
19084;SDS011;9675;51.538;6.728;2023-04-19T02:20:42;6.83;;;3.53;;
19084;SDS011;9675;51.538;6.728;2023-04-19T02:23:09;5.87;;;3.60;;
19084;SDS011;9675;51.538;6.728;2023-04-19T02:25:37;7.13;;;4.17;;
19084;SDS011;9675;51.538;6.728;2023-04-19T02:28:04;7.33;;;3.97;;
19084;SDS011;9675;51.538;6.728;2023-04-19T02:30:31;6.30;;;3.27;;
19084;SDS011;9675;51.538;6.728;2023-04-19T02:33:00;6.13;;;3.40;;
19084;SDS011;9675;51.538;6.728;2023-04-19T02:35:26;7.90;;;3.97;;
19084;SDS011;9675;51.538;6.728;2023-04-19T02:37:53;6.53;;;3.47;;
19084;SDS011;9675;51.538;6.728;2023-04-19T02:40:20;5.67;;;2.77;;
19084;SDS011;9675;51.538;6.728;2023-04-19T02:42:48;7.27;;;3.40;;
19084;SDS011;9675;51.538;6.728;2023-04-19T02:45:15;7.03;;;3.60;;
19084;SDS011;9675;51.538;6.728;2023-04-19T02:47:42;4.60;;;3.10;;
19084;SDS011;9675;51.538;6.728;2023-04-19T02:50:12;3.67;;;1.67;;
19084;SDS011;9675;51.538;6.728;2023-04-19T02:52:41;14.50;;;4.60;;
19084;SDS011;9675;51.538;6.728;2023-04-19T02:55:08;4.27;;;2.23;;
19084;SDS011;9675;51.538;6.728;2023-04-19T02:57:35;8.63;;;3.30;;
19084;SDS011;9675;51.538;6.728;2023-04-19T03:00:02;7.60;;;3.63;;
19084;SDS011;9675;51.538;6.728;2023-04-19T03:02:32;4.63;;;2.50;;
19084;SDS011;9675;51.538;6.728;2023-04-19T03:04:59;7.00;;;3.17;;
19084;SDS011;9675;51.538;6.728;2023-04-19T03:07:29;4.90;;;2.87;;
19084;SDS011;9675;51.538;6.728;2023-04-19T03:09:56;9.50;;;3.17;;
19084;SDS011;9675;51.538;6.728;2023-04-19T03:12:23;6.90;;;3.17;;
19084;SDS011;9675;51.538;6.728;2023-04-19T03:14:50;1.60;;;1.17;;
19084;SDS011;9675;51.538;6.728;2023-04-19T03:17:17;5.27;;;2.73;;
19084;SDS011;9675;51.538;6.728;2023-04-19T03:19:44;5.73;;;2.43;;
19084;SDS011;9675;51.538;6.728;2023-04-19T03:22:11;7.23;;;3.00;;
19084;SDS011;9675;51.538;6.728;2023-04-19T03:24:39;3.80;;;2.50;;
19084;SDS011;9675;51.538;6.728;2023-04-19T03:27:06;6.83;;;2.67;;
19084;SDS011;9675;51.538;6.728;2023-04-19T03:29:33;5.60;;;2.67;;
19084;SDS011;9675;51.538;6.728;2023-04-19T03:32:00;6.70;;;3.30;;
19084;SDS011;9675;51.538;6.728;2023-04-19T03:34:27;4.10;;;2.90;;
19084;SDS011;9675;51.538;6.728;2023-04-19T03:36:54;5.53;;;2.13;;
19084;SDS011;9675;51.538;6.728;2023-04-19T03:39:21;4.43;;;2.33;;
19084;SDS011;9675;51.538;6.728;2023-04-19T03:41:50;5.50;;;3.10;;
19084;SDS011;9675;51.538;6.728;2023-04-19T03:44:17;5.73;;;2.37;;
19084;SDS011;9675;51.538;6.728;2023-04-19T03:46:44;4.20;;;2.60;;
19084;SDS011;9675;51.538;6.728;2023-04-19T03:49:12;5.33;;;2.50;;
19084;SDS011;9675;51.538;6.728;2023-04-19T03:51:39;2.97;;;1.33;;
19084;SDS011;9675;51.538;6.728;2023-04-19T03:54:06;4.77;;;2.73;;
19084;SDS011;9675;51.538;6.728;2023-04-19T03:56:33;4.00;;;1.90;;
19084;SDS011;9675;51.538;6.728;2023-04-19T03:59:01;4.00;;;2.10;;
19084;SDS011;9675;51.538;6.728;2023-04-19T04:01:28;1.23;;;1.00;;
19084;SDS011;9675;51.538;6.728;2023-04-19T04:03:55;4.30;;;2.00;;
19084;SDS011;9675;51.538;6.728;2023-04-19T04:06:22;3.10;;;2.00;;
19084;SDS011;9675;51.538;6.728;2023-04-19T04:08:50;4.03;;;2.57;;
19084;SDS011;9675;51.538;6.728;2023-04-19T04:11:17;4.23;;;1.80;;
19084;SDS011;9675;51.538;6.728;2023-04-19T04:13:44;5.13;;;2.30;;
19084;SDS011;9675;51.538;6.728;2023-04-19T04:16:14;5.27;;;1.83;;
19084;SDS011;9675;51.538;6.728;2023-04-19T04:18:42;4.40;;;2.30;;
19084;SDS011;9675;51.538;6.728;2023-04-19T04:21:09;3.90;;;2.27;;
19084;SDS011;9675;51.538;6.728;2023-04-19T04:23:36;6.23;;;2.20;;
19084;SDS011;9675;51.538;6.728;2023-04-19T04:26:03;6.60;;;2.30;;
19084;SDS011;9675;51.538;6.728;2023-04-19T04:28:34;1.97;;;1.27;;
19084;SDS011;9675;51.538;6.728;2023-04-19T04:31:01;2.53;;;1.87;;
19084;SDS011;9675;51.538;6.728;2023-04-19T04:33:29;2.60;;;1.77;;
19084;SDS011;9675;51.538;6.728;2023-04-19T04:35:56;7.03;;;2.37;;
19084;SDS011;9675;51.538;6.728;2023-04-19T04:38:23;3.77;;;1.90;;
19084;SDS011;9675;51.538;6.728;2023-04-19T04:40:51;3.40;;;2.07;;
19084;SDS011;9675;51.538;6.728;2023-04-19T04:43:19;4.53;;;2.40;;
19084;SDS011;9675;51.538;6.728;2023-04-19T04:45:47;4.13;;;1.40;;
19084;SDS011;9675;51.538;6.728;2023-04-19T04:48:14;4.73;;;2.80;;
19084;SDS011;9675;51.538;6.728;2023-04-19T04:50:43;2.53;;;1.50;;
19084;SDS011;9675;51.538;6.728;2023-04-19T04:53:10;5.57;;;2.20;;
19084;SDS011;9675;51.538;6.728;2023-04-19T04:55:37;4.60;;;2.00;;
19084;SDS011;9675;51.538;6.728;2023-04-19T04:58:05;1.30;;;0.77;;
19084;SDS011;9675;51.538;6.728;2023-04-19T05:00:33;6.93;;;2.70;;
19084;SDS011;9675;51.538;6.728;2023-04-19T05:03:00;5.27;;;2.00;;
19084;SDS011;9675;51.538;6.728;2023-04-19T05:05:27;7.83;;;3.03;;
19084;SDS011;9675;51.538;6.728;2023-04-19T05:07:56;3.30;;;2.00;;
19084;SDS011;9675;51.538;6.728;2023-04-19T05:10:23;2.80;;;1.70;;
19084;SDS011;9675;51.538;6.728;2023-04-19T05:12:50;2.87;;;1.90;;
19084;SDS011;9675;51.538;6.728;2023-04-19T05:15:17;4.63;;;2.37;;
19084;SDS011;9675;51.538;6.728;2023-04-19T05:17:44;3.80;;;2.17;;
19084;SDS011;9675;51.538;6.728;2023-04-19T05:20:11;3.77;;;2.47;;
19084;SDS011;9675;51.538;6.728;2023-04-19T05:22:40;3.73;;;2.00;;
19084;SDS011;9675;51.538;6.728;2023-04-19T05:25:09;2.70;;;1.97;;
19084;SDS011;9675;51.538;6.728;2023-04-19T05:27:37;4.20;;;2.37;;
19084;SDS011;9675;51.538;6.728;2023-04-19T05:30:04;2.30;;;1.43;;
19084;SDS011;9675;51.538;6.728;2023-04-19T05:32:32;8.47;;;2.33;;
19084;SDS011;9675;51.538;6.728;2023-04-19T05:35:00;4.77;;;2.37;;
19084;SDS011;9675;51.538;6.728;2023-04-19T05:37:27;3.10;;;2.00;;
19084;SDS011;9675;51.538;6.728;2023-04-19T05:39:54;3.37;;;1.93;;
19084;SDS011;9675;51.538;6.728;2023-04-19T05:42:25;5.07;;;1.90;;
19084;SDS011;9675;51.538;6.728;2023-04-19T05:44:55;4.77;;;2.40;;
19084;SDS011;9675;51.538;6.728;2023-04-19T05:47:22;6.17;;;3.20;;
19084;SDS011;9675;51.538;6.728;2023-04-19T05:49:49;3.83;;;2.03;;
19084;SDS011;9675;51.538;6.728;2023-04-19T05:52:16;3.57;;;1.73;;
19084;SDS011;9675;51.538;6.728;2023-04-19T05:54:44;3.33;;;2.17;;
19084;SDS011;9675;51.538;6.728;2023-04-19T05:57:15;5.67;;;3.27;;
19084;SDS011;9675;51.538;6.728;2023-04-19T05:59:43;3.27;;;2.10;;
19084;SDS011;9675;51.538;6.728;2023-04-19T06:02:10;3.10;;;1.80;;
19084;SDS011;9675;51.538;6.728;2023-04-19T06:04:37;2.40;;;1.63;;
19084;SDS011;9675;51.538;6.728;2023-04-19T06:07:05;3.47;;;2.03;;
19084;SDS011;9675;51.538;6.728;2023-04-19T06:09:33;8.83;;;2.27;;
19084;SDS011;9675;51.538;6.728;2023-04-19T06:12:00;2.63;;;1.80;;
19084;SDS011;9675;51.538;6.728;2023-04-19T06:14:27;1.33;;;0.80;;
19084;SDS011;9675;51.538;6.728;2023-04-19T06:16:55;1.77;;;1.23;;
19084;SDS011;9675;51.538;6.728;2023-04-19T06:19:23;6.73;;;2.80;;
19084;SDS011;9675;51.538;6.728;2023-04-19T06:22:17;4.63;;;1.60;;
19084;SDS011;9675;51.538;6.728;2023-04-19T06:24:44;3.63;;;2.10;;
19084;SDS011;9675;51.538;6.728;2023-04-19T06:27:13;6.20;;;2.20;;
19084;SDS011;9675;51.538;6.728;2023-04-19T06:29:41;1.90;;;0.90;;
19084;SDS011;9675;51.538;6.728;2023-04-19T06:32:09;4.73;;;1.30;;
19084;SDS011;9675;51.538;6.728;2023-04-19T06:34:36;4.10;;;1.60;;
19084;SDS011;9675;51.538;6.728;2023-04-19T06:37:03;4.50;;;2.03;;
19084;SDS011;9675;51.538;6.728;2023-04-19T06:39:31;5.97;;;1.73;;
19084;SDS011;9675;51.538;6.728;2023-04-19T06:41:58;2.73;;;1.70;;
19084;SDS011;9675;51.538;6.728;2023-04-19T06:44:26;1.17;;;0.97;;
19084;SDS011;9675;51.538;6.728;2023-04-19T06:46:53;2.83;;;1.53;;
19084;SDS011;9675;51.538;6.728;2023-04-19T06:49:21;9.40;;;2.03;;
19084;SDS011;9675;51.538;6.728;2023-04-19T06:51:48;4.47;;;2.17;;
19084;SDS011;9675;51.538;6.728;2023-04-19T06:54:15;0.47;;;0.27;;
19084;SDS011;9675;51.538;6.728;2023-04-19T06:56:43;0.30;;;0.30;;
19084;SDS011;9675;51.538;6.728;2023-04-19T06:59:12;3.97;;;1.70;;
19084;SDS011;9675;51.538;6.728;2023-04-19T07:01:41;3.70;;;1.37;;
19084;SDS011;9675;51.538;6.728;2023-04-19T07:04:08;3.57;;;1.87;;
19084;SDS011;9675;51.538;6.728;2023-04-19T07:06:38;1.17;;;0.40;;
19084;SDS011;9675;51.538;6.728;2023-04-19T07:09:06;7.97;;;2.33;;
19084;SDS011;9675;51.538;6.728;2023-04-19T07:11:33;0.53;;;0.20;;
19084;SDS011;9675;51.538;6.728;2023-04-19T07:14:00;4.30;;;1.77;;
19084;SDS011;9675;51.538;6.728;2023-04-19T07:16:28;3.23;;;1.27;;
19084;SDS011;9675;51.538;6.728;2023-04-19T07:18:55;2.37;;;0.93;;
19084;SDS011;9675;51.538;6.728;2023-04-19T07:21:22;1.60;;;1.13;;
19084;SDS011;9675;51.538;6.728;2023-04-19T07:23:54;3.07;;;1.47;;
19084;SDS011;9675;51.538;6.728;2023-04-19T07:26:21;2.50;;;1.40;;
19084;SDS011;9675;51.538;6.728;2023-04-19T07:28:48;3.60;;;0.93;;
19084;SDS011;9675;51.538;6.728;2023-04-19T07:31:15;3.47;;;1.73;;
19084;SDS011;9675;51.538;6.728;2023-04-19T07:33:43;0.63;;;0.20;;
19084;SDS011;9675;51.538;6.728;2023-04-19T07:36:10;7.93;;;1.13;;
19084;SDS011;9675;51.538;6.728;2023-04-19T07:38:38;2.17;;;0.83;;
19084;SDS011;9675;51.538;6.728;2023-04-19T07:41:06;2.53;;;1.43;;
19084;SDS011;9675;51.538;6.728;2023-04-19T07:43:34;3.93;;;2.30;;
19084;SDS011;9675;51.538;6.728;2023-04-19T07:46:01;3.27;;;1.67;;
19084;SDS011;9675;51.538;6.728;2023-04-19T07:48:34;3.40;;;1.53;;
19084;SDS011;9675;51.538;6.728;2023-04-19T07:51:06;3.93;;;1.60;;
19084;SDS011;9675;51.538;6.728;2023-04-19T07:53:36;1.53;;;1.00;;
19084;SDS011;9675;51.538;6.728;2023-04-19T07:56:04;2.07;;;1.70;;
19084;SDS011;9675;51.538;6.728;2023-04-19T07:58:33;0.20;;;0.10;;
19084;SDS011;9675;51.538;6.728;2023-04-19T08:01:01;2.63;;;0.83;;
19084;SDS011;9675;51.538;6.728;2023-04-19T08:03:28;2.93;;;1.13;;
19084;SDS011;9675;51.538;6.728;2023-04-19T08:05:56;8.80;;;2.00;;
19084;SDS011;9675;51.538;6.728;2023-04-19T08:08:23;1.03;;;0.60;;
19084;SDS011;9675;51.538;6.728;2023-04-19T08:10:50;4.20;;;1.67;;
19084;SDS011;9675;51.538;6.728;2023-04-19T08:13:21;2.53;;;1.00;;
19084;SDS011;9675;51.538;6.728;2023-04-19T08:15:48;1.03;;;0.80;;
19084;SDS011;9675;51.538;6.728;2023-04-19T08:18:15;0.87;;;0.83;;
19084;SDS011;9675;51.538;6.728;2023-04-19T08:20:42;0.47;;;0.40;;
19084;SDS011;9675;51.538;6.728;2023-04-19T08:23:11;1.10;;;0.70;;
19084;SDS011;9675;51.538;6.728;2023-04-19T08:25:38;1.53;;;0.87;;
19084;SDS011;9675;51.538;6.728;2023-04-19T08:28:06;0.80;;;0.70;;
19084;SDS011;9675;51.538;6.728;2023-04-19T08:30:34;0.60;;;0.50;;
19084;SDS011;9675;51.538;6.728;2023-04-19T08:33:01;0.87;;;0.50;;
19084;SDS011;9675;51.538;6.728;2023-04-19T08:35:28;1.30;;;1.00;;
19084;SDS011;9675;51.538;6.728;2023-04-19T08:37:55;1.00;;;0.70;;
19084;SDS011;9675;51.538;6.728;2023-04-19T08:40:22;0.57;;;0.50;;
19084;SDS011;9675;51.538;6.728;2023-04-19T08:42:50;0.40;;;0.10;;
19084;SDS011;9675;51.538;6.728;2023-04-19T08:45:17;0.63;;;0.50;;
19084;SDS011;9675;51.538;6.728;2023-04-19T08:47:50;2.17;;;0.93;;
19084;SDS011;9675;51.538;6.728;2023-04-19T08:50:18;2.17;;;0.90;;
19084;SDS011;9675;51.538;6.728;2023-04-19T08:52:46;2.47;;;1.20;;
19084;SDS011;9675;51.538;6.728;2023-04-19T08:55:14;0.83;;;0.80;;
19084;SDS011;9675;51.538;6.728;2023-04-19T08:57:42;3.97;;;1.40;;
19084;SDS011;9675;51.538;6.728;2023-04-19T09:00:09;5.50;;;1.00;;
19084;SDS011;9675;51.538;6.728;2023-04-19T09:02:43;1.47;;;0.70;;
19084;SDS011;9675;51.538;6.728;2023-04-19T09:05:14;1.80;;;1.23;;
19084;SDS011;9675;51.538;6.728;2023-04-19T09:07:42;1.93;;;1.10;;
19084;SDS011;9675;51.538;6.728;2023-04-19T09:10:11;1.67;;;0.93;;
19084;SDS011;9675;51.538;6.728;2023-04-19T09:12:40;1.07;;;0.90;;
19084;SDS011;9675;51.538;6.728;2023-04-19T09:15:08;1.13;;;0.90;;
19084;SDS011;9675;51.538;6.728;2023-04-19T09:17:36;1.37;;;0.97;;
19084;SDS011;9675;51.538;6.728;2023-04-19T09:20:05;0.33;;;0.13;;
19084;SDS011;9675;51.538;6.728;2023-04-19T09:22:34;1.13;;;0.87;;
19084;SDS011;9675;51.538;6.728;2023-04-19T09:25:02;2.30;;;0.50;;
19084;SDS011;9675;51.538;6.728;2023-04-19T09:27:31;4.17;;;0.70;;
19084;SDS011;9675;51.538;6.728;2023-04-19T09:30:00;0.60;;;0.60;;
19084;SDS011;9675;51.538;6.728;2023-04-19T09:32:43;0.60;;;0.40;;
19084;SDS011;9675;51.538;6.728;2023-04-19T09:35:12;0.73;;;0.17;;
19084;SDS011;9675;51.538;6.728;2023-04-19T09:37:40;0.30;;;0.30;;
19084;SDS011;9675;51.538;6.728;2023-04-19T09:40:20;0.30;;;0.20;;
19084;SDS011;9675;51.538;6.728;2023-04-19T09:42:48;1.70;;;0.47;;
19084;SDS011;9675;51.538;6.728;2023-04-19T09:45:16;0.80;;;0.47;;
19084;SDS011;9675;51.538;6.728;2023-04-19T09:47:43;5.93;;;0.70;;
19084;SDS011;9675;51.538;6.728;2023-04-19T09:50:10;3.23;;;0.97;;
19084;SDS011;9675;51.538;6.728;2023-04-19T09:52:40;2.23;;;0.63;;
19084;SDS011;9675;51.538;6.728;2023-04-19T09:55:09;1.50;;;0.77;;
19084;SDS011;9675;51.538;6.728;2023-04-19T09:57:36;4.20;;;0.47;;
19084;SDS011;9675;51.538;6.728;2023-04-19T10:00:04;0.33;;;0.20;;
19084;SDS011;9675;51.538;6.728;2023-04-19T10:02:33;1.00;;;0.63;;
19084;SDS011;9675;51.538;6.728;2023-04-19T10:05:01;0.50;;;0.40;;
19084;SDS011;9675;51.538;6.728;2023-04-19T10:07:30;1.33;;;0.87;;
19084;SDS011;9675;51.538;6.728;2023-04-19T10:09:59;0.20;;;0.10;;
19084;SDS011;9675;51.538;6.728;2023-04-19T10:12:28;2.27;;;0.97;;
19084;SDS011;9675;51.538;6.728;2023-04-19T10:14:57;4.63;;;0.83;;
19084;SDS011;9675;51.538;6.728;2023-04-19T10:17:24;3.13;;;0.40;;
19084;SDS011;9675;51.538;6.728;2023-04-19T10:19:54;9.03;;;1.20;;
19084;SDS011;9675;51.538;6.728;2023-04-19T10:22:30;1.23;;;0.60;;
19084;SDS011;9675;51.538;6.728;2023-04-19T10:25:08;1.77;;;0.90;;
19084;SDS011;9675;51.538;6.728;2023-04-19T10:27:37;0.93;;;0.40;;
19084;SDS011;9675;51.538;6.728;2023-04-19T10:30:15;2.23;;;0.93;;
19084;SDS011;9675;51.538;6.728;2023-04-19T10:32:45;1.13;;;0.73;;
19084;SDS011;9675;51.538;6.728;2023-04-19T10:35:18;2.50;;;0.90;;
19084;SDS011;9675;51.538;6.728;2023-04-19T10:38:03;0.97;;;0.60;;
19084;SDS011;9675;51.538;6.728;2023-04-19T10:43:25;2.50;;;1.00;;
19084;SDS011;9675;51.538;6.728;2023-04-19T10:45:56;1.07;;;0.50;;
19084;SDS011;9675;51.538;6.728;2023-04-19T10:48:36;0.50;;;0.30;;
19084;SDS011;9675;51.538;6.728;2023-04-19T10:51:11;1.10;;;0.73;;
19084;SDS011;9675;51.538;6.728;2023-04-19T10:53:44;1.97;;;0.80;;
19084;SDS011;9675;51.538;6.728;2023-04-19T10:56:18;1.37;;;0.43;;
19084;SDS011;9675;51.538;6.728;2023-04-19T10:59:11;2.03;;;0.90;;
19084;SDS011;9675;51.538;6.728;2023-04-19T11:01:57;0.93;;;0.43;;
19084;SDS011;9675;51.538;6.728;2023-04-19T11:07:38;4.63;;;0.83;;
19084;SDS011;9675;51.538;6.728;2023-04-19T11:10:08;0.87;;;0.37;;
19084;SDS011;9675;51.538;6.728;2023-04-19T11:12:40;3.03;;;0.70;;
19084;SDS011;9675;51.538;6.728;2023-04-19T11:15:08;0.30;;;0.20;;
19084;SDS011;9675;51.538;6.728;2023-04-19T11:17:36;3.67;;;0.80;;
19084;SDS011;9675;51.538;6.728;2023-04-19T11:20:04;0.93;;;0.70;;
19084;SDS011;9675;51.538;6.728;2023-04-19T11:22:33;2.57;;;0.80;;
19084;SDS011;9675;51.538;6.728;2023-04-19T11:25:10;0.50;;;0.33;;
19084;SDS011;9675;51.538;6.728;2023-04-19T11:27:42;2.83;;;1.00;;
19084;SDS011;9675;51.538;6.728;2023-04-19T11:30:16;2.17;;;1.10;;
19084;SDS011;9675;51.538;6.728;2023-04-19T11:32:46;1.63;;;0.73;;
19084;SDS011;9675;51.538;6.728;2023-04-19T11:35:17;0.37;;;0.20;;
19084;SDS011;9675;51.538;6.728;2023-04-19T11:37:45;1.73;;;1.00;;
19084;SDS011;9675;51.538;6.728;2023-04-19T11:40:13;1.50;;;0.90;;
19084;SDS011;9675;51.538;6.728;2023-04-19T11:42:43;1.10;;;0.83;;
19084;SDS011;9675;51.538;6.728;2023-04-19T11:45:11;1.77;;;1.00;;
19084;SDS011;9675;51.538;6.728;2023-04-19T11:47:50;0.77;;;0.47;;
19084;SDS011;9675;51.538;6.728;2023-04-19T11:50:30;1.80;;;0.70;;
19084;SDS011;9675;51.538;6.728;2023-04-19T11:53:03;8.17;;;1.60;;
19084;SDS011;9675;51.538;6.728;2023-04-19T11:55:36;6.20;;;1.53;;
19084;SDS011;9675;51.538;6.728;2023-04-19T11:58:06;3.03;;;1.00;;
19084;SDS011;9675;51.538;6.728;2023-04-19T12:00:34;3.43;;;1.00;;
19084;SDS011;9675;51.538;6.728;2023-04-19T12:03:01;0.83;;;0.30;;
19084;SDS011;9675;51.538;6.728;2023-04-19T12:05:30;1.57;;;0.90;;
19084;SDS011;9675;51.538;6.728;2023-04-19T12:07:59;0.93;;;0.80;;
19084;SDS011;9675;51.538;6.728;2023-04-19T12:10:28;4.13;;;1.17;;
19084;SDS011;9675;51.538;6.728;2023-04-19T12:13:03;1.63;;;0.90;;
19084;SDS011;9675;51.538;6.728;2023-04-19T12:15:45;3.17;;;1.43;;
19084;SDS011;9675;51.538;6.728;2023-04-19T12:18:13;3.53;;;1.20;;
19084;SDS011;9675;51.538;6.728;2023-04-19T12:20:43;1.60;;;0.83;;
19084;SDS011;9675;51.538;6.728;2023-04-19T12:23:12;2.53;;;1.50;;
19084;SDS011;9675;51.538;6.728;2023-04-19T12:25:40;3.13;;;1.47;;
19084;SDS011;9675;51.538;6.728;2023-04-19T12:28:08;3.23;;;1.10;;
19084;SDS011;9675;51.538;6.728;2023-04-19T12:30:37;2.27;;;0.67;;
19084;SDS011;9675;51.538;6.728;2023-04-19T12:33:05;0.87;;;0.60;;
19084;SDS011;9675;51.538;6.728;2023-04-19T12:35:33;0.50;;;0.30;;
19084;SDS011;9675;51.538;6.728;2023-04-19T12:38:01;1.17;;;0.80;;
19084;SDS011;9675;51.538;6.728;2023-04-19T12:40:28;2.73;;;1.40;;
19084;SDS011;9675;51.538;6.728;2023-04-19T12:43:02;1.87;;;1.30;;
19084;SDS011;9675;51.538;6.728;2023-04-19T12:45:32;2.27;;;1.73;;
19084;SDS011;9675;51.538;6.728;2023-04-19T12:48:01;3.67;;;1.03;;
19084;SDS011;9675;51.538;6.728;2023-04-19T12:50:29;2.87;;;0.67;;
19084;SDS011;9675;51.538;6.728;2023-04-19T12:52:56;2.03;;;1.10;;
19084;SDS011;9675;51.538;6.728;2023-04-19T12:55:23;3.23;;;1.10;;
19084;SDS011;9675;51.538;6.728;2023-04-19T12:57:50;2.47;;;1.47;;
19084;SDS011;9675;51.538;6.728;2023-04-19T13:00:17;1.17;;;0.63;;
19084;SDS011;9675;51.538;6.728;2023-04-19T13:02:45;3.53;;;0.60;;
19084;SDS011;9675;51.538;6.728;2023-04-19T13:05:14;1.20;;;0.87;;
19084;SDS011;9675;51.538;6.728;2023-04-19T13:07:41;3.10;;;1.20;;
19084;SDS011;9675;51.538;6.728;2023-04-19T13:10:15;6.30;;;2.10;;
19084;SDS011;9675;51.538;6.728;2023-04-19T13:12:42;4.90;;;2.10;;
19084;SDS011;9675;51.538;6.728;2023-04-19T13:15:09;3.50;;;2.53;;
19084;SDS011;9675;51.538;6.728;2023-04-19T13:17:37;2.57;;;1.50;;
19084;SDS011;9675;51.538;6.728;2023-04-19T13:20:04;2.57;;;1.30;;
19084;SDS011;9675;51.538;6.728;2023-04-19T13:22:34;8.40;;;1.37;;
19084;SDS011;9675;51.538;6.728;2023-04-19T13:25:01;2.37;;;1.50;;
19084;SDS011;9675;51.538;6.728;2023-04-19T13:27:29;2.27;;;1.33;;
19084;SDS011;9675;51.538;6.728;2023-04-19T13:29:56;2.97;;;1.33;;
19084;SDS011;9675;51.538;6.728;2023-04-19T13:32:23;0.97;;;0.73;;
19084;SDS011;9675;51.538;6.728;2023-04-19T13:34:50;2.10;;;0.97;;
19084;SDS011;9675;51.538;6.728;2023-04-19T13:37:17;0.30;;;0.13;;
19084;SDS011;9675;51.538;6.728;2023-04-19T13:39:45;0.40;;;0.40;;
19084;SDS011;9675;51.538;6.728;2023-04-19T13:42:13;0.27;;;0.23;;
19084;SDS011;9675;51.538;6.728;2023-04-19T13:44:40;0.40;;;0.40;;
19084;SDS011;9675;51.538;6.728;2023-04-19T13:47:07;5.53;;;0.80;;
19084;SDS011;9675;51.538;6.728;2023-04-19T13:49:34;3.07;;;1.40;;
19084;SDS011;9675;51.538;6.728;2023-04-19T13:52:01;3.47;;;1.20;;
19084;SDS011;9675;51.538;6.728;2023-04-19T13:54:28;0.30;;;0.30;;
19084;SDS011;9675;51.538;6.728;2023-04-19T13:56:56;2.10;;;1.20;;
19084;SDS011;9675;51.538;6.728;2023-04-19T13:59:23;5.30;;;1.27;;
19084;SDS011;9675;51.538;6.728;2023-04-19T14:01:50;8.77;;;1.83;;
19084;SDS011;9675;51.538;6.728;2023-04-19T14:04:19;1.90;;;1.10;;
19084;SDS011;9675;51.538;6.728;2023-04-19T14:06:46;1.40;;;0.60;;
19084;SDS011;9675;51.538;6.728;2023-04-19T14:09:13;1.53;;;0.90;;
19084;SDS011;9675;51.538;6.728;2023-04-19T14:11:41;3.00;;;1.00;;
19084;SDS011;9675;51.538;6.728;2023-04-19T14:14:09;5.43;;;1.17;;
19084;SDS011;9675;51.538;6.728;2023-04-19T14:16:36;2.80;;;1.07;;
19084;SDS011;9675;51.538;6.728;2023-04-19T14:19:03;0.60;;;0.30;;
19084;SDS011;9675;51.538;6.728;2023-04-19T14:21:30;0.83;;;0.57;;
19084;SDS011;9675;51.538;6.728;2023-04-19T14:23:57;2.23;;;0.67;;
19084;SDS011;9675;51.538;6.728;2023-04-19T14:26:24;2.47;;;1.40;;
19084;SDS011;9675;51.538;6.728;2023-04-19T14:28:52;3.87;;;1.03;;
19084;SDS011;9675;51.538;6.728;2023-04-19T14:31:20;0.33;;;0.33;;
19084;SDS011;9675;51.538;6.728;2023-04-19T14:33:47;1.33;;;0.87;;
19084;SDS011;9675;51.538;6.728;2023-04-19T14:36:14;1.73;;;1.10;;
19084;SDS011;9675;51.538;6.728;2023-04-19T14:38:42;2.90;;;1.33;;
19084;SDS011;9675;51.538;6.728;2023-04-19T14:41:14;0.67;;;0.37;;
19084;SDS011;9675;51.538;6.728;2023-04-19T14:43:42;1.53;;;0.90;;
19084;SDS011;9675;51.538;6.728;2023-04-19T14:46:13;3.53;;;1.40;;
19084;SDS011;9675;51.538;6.728;2023-04-19T14:48:42;5.83;;;1.37;;
19084;SDS011;9675;51.538;6.728;2023-04-19T14:51:12;0.80;;;0.80;;
19084;SDS011;9675;51.538;6.728;2023-04-19T14:53:39;1.00;;;0.57;;
19084;SDS011;9675;51.538;6.728;2023-04-19T14:56:06;1.57;;;1.00;;
19084;SDS011;9675;51.538;6.728;2023-04-19T14:58:33;1.33;;;0.70;;
19084;SDS011;9675;51.538;6.728;2023-04-19T15:01:09;2.13;;;0.77;;
19084;SDS011;9675;51.538;6.728;2023-04-19T15:03:37;1.70;;;1.40;;
19084;SDS011;9675;51.538;6.728;2023-04-19T15:06:05;2.80;;;1.00;;
19084;SDS011;9675;51.538;6.728;2023-04-19T15:08:33;1.60;;;0.80;;
19084;SDS011;9675;51.538;6.728;2023-04-19T15:11:00;1.07;;;0.70;;
19084;SDS011;9675;51.538;6.728;2023-04-19T15:13:27;3.10;;;1.17;;